sensor_id;sensor_type;location;lat;lon;timestamp;P1;durP1;ratioP1;P2;durP2;ratioP2
49860;SDS011;35761;48.826;9.238;2023-12-20T00:01:28;1.85;;;1.40;;
49860;SDS011;35761;48.826;9.238;2023-12-20T00:03:53;1.70;;;1.30;;
49860;SDS011;35761;48.826;9.238;2023-12-20T00:06:19;3.25;;;1.15;;
49860;SDS011;35761;48.826;9.238;2023-12-20T00:08:44;2.28;;;1.30;;
49860;SDS011;35761;48.826;9.238;2023-12-20T00:11:10;2.40;;;1.50;;
49860;SDS011;35761;48.826;9.238;2023-12-20T00:13:35;2.15;;;1.30;;
49860;SDS011;35761;48.826;9.238;2023-12-20T00:16:01;2.40;;;1.30;;
49860;SDS011;35761;48.826;9.238;2023-12-20T00:18:26;2.97;;;1.35;;
49860;SDS011;35761;48.826;9.238;2023-12-20T00:20:52;1.42;;;1.10;;
49860;SDS011;35761;48.826;9.238;2023-12-20T00:23:17;2.20;;;1.30;;
49860;SDS011;35761;48.826;9.238;2023-12-20T00:25:43;1.80;;;1.08;;
49860;SDS011;35761;48.826;9.238;2023-12-20T00:28:08;2.17;;;1.60;;
49860;SDS011;35761;48.826;9.238;2023-12-20T00:30:34;2.17;;;1.25;;
49860;SDS011;35761;48.826;9.238;2023-12-20T00:32:59;1.67;;;1.20;;
49860;SDS011;35761;48.826;9.238;2023-12-20T00:35:25;2.28;;;1.20;;
49860;SDS011;35761;48.826;9.238;2023-12-20T00:37:50;1.80;;;1.35;;
49860;SDS011;35761;48.826;9.238;2023-12-20T00:40:16;2.22;;;1.45;;
49860;SDS011;35761;48.826;9.238;2023-12-20T00:42:41;1.52;;;1.20;;
49860;SDS011;35761;48.826;9.238;2023-12-20T00:45:07;2.63;;;1.27;;
49860;SDS011;35761;48.826;9.238;2023-12-20T00:47:32;2.15;;;1.10;;
49860;SDS011;35761;48.826;9.238;2023-12-20T00:49:58;2.10;;;1.30;;
49860;SDS011;35761;48.826;9.238;2023-12-20T00:52:24;1.95;;;1.27;;
49860;SDS011;35761;48.826;9.238;2023-12-20T00:54:49;1.48;;;1.10;;
49860;SDS011;35761;48.826;9.238;2023-12-20T00:57:15;3.03;;;1.40;;
49860;SDS011;35761;48.826;9.238;2023-12-20T00:59:40;1.65;;;1.23;;
49860;SDS011;35761;48.826;9.238;2023-12-20T01:02:06;1.15;;;1.00;;
49860;SDS011;35761;48.826;9.238;2023-12-20T01:04:31;2.25;;;1.23;;
49860;SDS011;35761;48.826;9.238;2023-12-20T01:06:57;2.33;;;1.35;;
49860;SDS011;35761;48.826;9.238;2023-12-20T01:09:22;2.28;;;1.30;;
49860;SDS011;35761;48.826;9.238;2023-12-20T01:11:52;1.83;;;1.23;;
49860;SDS011;35761;48.826;9.238;2023-12-20T01:14:18;2.08;;;1.33;;
49860;SDS011;35761;48.826;9.238;2023-12-20T01:16:43;2.55;;;1.38;;
49860;SDS011;35761;48.826;9.238;2023-12-20T01:19:09;3.50;;;1.30;;
49860;SDS011;35761;48.826;9.238;2023-12-20T01:21:34;3.50;;;1.50;;
49860;SDS011;35761;48.826;9.238;2023-12-20T01:24:00;7.38;;;1.40;;
49860;SDS011;35761;48.826;9.238;2023-12-20T01:26:25;2.22;;;1.27;;
49860;SDS011;35761;48.826;9.238;2023-12-20T01:28:51;2.00;;;1.27;;
49860;SDS011;35761;48.826;9.238;2023-12-20T01:31:16;4.38;;;1.20;;
49860;SDS011;35761;48.826;9.238;2023-12-20T01:33:42;3.65;;;1.42;;
49860;SDS011;35761;48.826;9.238;2023-12-20T01:36:07;2.00;;;1.30;;
49860;SDS011;35761;48.826;9.238;2023-12-20T01:38:33;2.20;;;1.30;;
49860;SDS011;35761;48.826;9.238;2023-12-20T01:40:59;2.33;;;1.23;;
49860;SDS011;35761;48.826;9.238;2023-12-20T01:43:25;1.75;;;1.17;;
49860;SDS011;35761;48.826;9.238;2023-12-20T01:45:50;2.95;;;1.13;;
49860;SDS011;35761;48.826;9.238;2023-12-20T01:48:16;1.73;;;1.13;;
49860;SDS011;35761;48.826;9.238;2023-12-20T01:50:43;2.30;;;1.30;;
49860;SDS011;35761;48.826;9.238;2023-12-20T01:53:10;2.17;;;1.35;;
49860;SDS011;35761;48.826;9.238;2023-12-20T01:55:38;4.75;;;2.05;;
49860;SDS011;35761;48.826;9.238;2023-12-20T01:58:06;5.00;;;1.73;;
49860;SDS011;35761;48.826;9.238;2023-12-20T02:00:32;2.85;;;1.80;;
49860;SDS011;35761;48.826;9.238;2023-12-20T02:02:59;4.07;;;2.00;;
49860;SDS011;35761;48.826;9.238;2023-12-20T02:05:29;3.15;;;1.80;;
49860;SDS011;35761;48.826;9.238;2023-12-20T02:07:54;3.88;;;1.98;;
49860;SDS011;35761;48.826;9.238;2023-12-20T02:10:20;3.42;;;1.77;;
49860;SDS011;35761;48.826;9.238;2023-12-20T02:12:46;3.33;;;1.95;;
49860;SDS011;35761;48.826;9.238;2023-12-20T02:15:11;3.15;;;1.73;;
49860;SDS011;35761;48.826;9.238;2023-12-20T02:17:38;3.25;;;1.50;;
49860;SDS011;35761;48.826;9.238;2023-12-20T02:20:04;2.03;;;1.40;;
49860;SDS011;35761;48.826;9.238;2023-12-20T02:22:30;3.88;;;1.60;;
49860;SDS011;35761;48.826;9.238;2023-12-20T02:24:56;3.08;;;1.50;;
49860;SDS011;35761;48.826;9.238;2023-12-20T02:27:21;2.88;;;1.23;;
49860;SDS011;35761;48.826;9.238;2023-12-20T02:29:48;4.50;;;1.40;;
49860;SDS011;35761;48.826;9.238;2023-12-20T02:32:15;2.15;;;1.40;;
49860;SDS011;35761;48.826;9.238;2023-12-20T02:34:40;3.22;;;1.30;;
49860;SDS011;35761;48.826;9.238;2023-12-20T02:37:06;2.63;;;1.42;;
49860;SDS011;35761;48.826;9.238;2023-12-20T02:39:31;4.00;;;1.92;;
49860;SDS011;35761;48.826;9.238;2023-12-20T02:41:58;2.88;;;1.45;;
49860;SDS011;35761;48.826;9.238;2023-12-20T02:44:24;2.33;;;1.38;;
49860;SDS011;35761;48.826;9.238;2023-12-20T02:46:49;2.35;;;1.45;;
49860;SDS011;35761;48.826;9.238;2023-12-20T02:49:15;2.65;;;1.60;;
49860;SDS011;35761;48.826;9.238;2023-12-20T02:51:40;2.17;;;1.30;;
49860;SDS011;35761;48.826;9.238;2023-12-20T02:54:06;2.63;;;1.35;;
49860;SDS011;35761;48.826;9.238;2023-12-20T02:56:32;2.45;;;1.45;;
49860;SDS011;35761;48.826;9.238;2023-12-20T02:58:58;2.28;;;1.40;;
49860;SDS011;35761;48.826;9.238;2023-12-20T03:01:23;3.88;;;1.50;;
49860;SDS011;35761;48.826;9.238;2023-12-20T03:03:49;2.28;;;1.30;;
49860;SDS011;35761;48.826;9.238;2023-12-20T03:06:18;1.75;;;1.25;;
49860;SDS011;35761;48.826;9.238;2023-12-20T03:08:44;2.90;;;1.42;;
49860;SDS011;35761;48.826;9.238;2023-12-20T03:11:09;2.05;;;1.20;;
49860;SDS011;35761;48.826;9.238;2023-12-20T03:13:35;1.50;;;1.13;;
49860;SDS011;35761;48.826;9.238;2023-12-20T03:16:00;1.75;;;1.17;;
49860;SDS011;35761;48.826;9.238;2023-12-20T03:18:26;1.67;;;1.00;;
49860;SDS011;35761;48.826;9.238;2023-12-20T03:20:53;6.80;;;1.45;;
49860;SDS011;35761;48.826;9.238;2023-12-20T03:23:18;1.52;;;1.10;;
49860;SDS011;35761;48.826;9.238;2023-12-20T03:25:44;0.80;;;0.70;;
49860;SDS011;35761;48.826;9.238;2023-12-20T03:28:09;2.38;;;0.90;;
49860;SDS011;35761;48.826;9.238;2023-12-20T03:30:35;0.85;;;0.70;;
49860;SDS011;35761;48.826;9.238;2023-12-20T03:33:00;0.88;;;0.80;;
49860;SDS011;35761;48.826;9.238;2023-12-20T03:35:26;2.25;;;0.73;;
49860;SDS011;35761;48.826;9.238;2023-12-20T03:37:51;2.22;;;0.70;;
49860;SDS011;35761;48.826;9.238;2023-12-20T03:40:17;0.88;;;0.65;;
49860;SDS011;35761;48.826;9.238;2023-12-20T03:42:42;1.23;;;0.43;;
49860;SDS011;35761;48.826;9.238;2023-12-20T03:45:08;2.55;;;0.43;;
49860;SDS011;35761;48.826;9.238;2023-12-20T03:47:34;0.57;;;0.52;;
49860;SDS011;35761;48.826;9.238;2023-12-20T03:49:59;0.43;;;0.40;;
49860;SDS011;35761;48.826;9.238;2023-12-20T03:52:25;2.17;;;0.82;;
49860;SDS011;35761;48.826;9.238;2023-12-20T03:54:50;1.88;;;1.30;;
49860;SDS011;35761;48.826;9.238;2023-12-20T03:57:15;0.63;;;0.40;;
49860;SDS011;35761;48.826;9.238;2023-12-20T03:59:41;0.40;;;0.30;;
49860;SDS011;35761;48.826;9.238;2023-12-20T04:02:06;0.45;;;0.40;;
49860;SDS011;35761;48.826;9.238;2023-12-20T04:04:32;0.22;;;0.20;;
49860;SDS011;35761;48.826;9.238;2023-12-20T04:06:57;0.25;;;0.25;;
49860;SDS011;35761;48.826;9.238;2023-12-20T04:09:23;0.40;;;0.40;;
49860;SDS011;35761;48.826;9.238;2023-12-20T04:11:48;0.20;;;0.20;;
49860;SDS011;35761;48.826;9.238;2023-12-20T04:14:13;0.50;;;0.40;;
49860;SDS011;35761;48.826;9.238;2023-12-20T04:16:39;1.17;;;0.50;;
49860;SDS011;35761;48.826;9.238;2023-12-20T04:19:05;0.35;;;0.30;;
49860;SDS011;35761;48.826;9.238;2023-12-20T04:21:30;0.93;;;0.50;;
49860;SDS011;35761;48.826;9.238;2023-12-20T04:23:56;0.35;;;0.35;;
49860;SDS011;35761;48.826;9.238;2023-12-20T04:26:21;0.30;;;0.30;;
49860;SDS011;35761;48.826;9.238;2023-12-20T04:28:47;0.50;;;0.38;;
49860;SDS011;35761;48.826;9.238;2023-12-20T04:31:12;0.32;;;0.32;;
49860;SDS011;35761;48.826;9.238;2023-12-20T04:33:38;0.40;;;0.40;;
49860;SDS011;35761;48.826;9.238;2023-12-20T04:36:04;0.13;;;0.13;;
49860;SDS011;35761;48.826;9.238;2023-12-20T04:38:29;0.45;;;0.38;;
49860;SDS011;35761;48.826;9.238;2023-12-20T04:40:55;0.43;;;0.35;;
49860;SDS011;35761;48.826;9.238;2023-12-20T04:43:20;0.85;;;0.40;;
49860;SDS011;35761;48.826;9.238;2023-12-20T04:45:46;0.77;;;0.50;;
49860;SDS011;35761;48.826;9.238;2023-12-20T04:48:12;0.68;;;0.43;;
49860;SDS011;35761;48.826;9.238;2023-12-20T04:50:37;0.40;;;0.40;;
49860;SDS011;35761;48.826;9.238;2023-12-20T04:53:03;1.90;;;1.50;;
49860;SDS011;35761;48.826;9.238;2023-12-20T04:55:28;9.15;;;4.63;;
49860;SDS011;35761;48.826;9.238;2023-12-20T04:57:54;23.45;;;12.23;;
49860;SDS011;35761;48.826;9.238;2023-12-20T05:00:20;0.73;;;0.73;;
49860;SDS011;35761;48.826;9.238;2023-12-20T05:02:45;1.55;;;0.50;;
49860;SDS011;35761;48.826;9.238;2023-12-20T05:05:11;0.40;;;0.40;;
49860;SDS011;35761;48.826;9.238;2023-12-20T05:07:36;0.30;;;0.30;;
49860;SDS011;35761;48.826;9.238;2023-12-20T05:10:02;1.55;;;0.45;;
49860;SDS011;35761;48.826;9.238;2023-12-20T05:12:29;0.30;;;0.30;;
49860;SDS011;35761;48.826;9.238;2023-12-20T05:14:55;1.77;;;0.73;;
49860;SDS011;35761;48.826;9.238;2023-12-20T05:17:21;0.75;;;0.57;;
49860;SDS011;35761;48.826;9.238;2023-12-20T05:19:46;0.35;;;0.35;;
49860;SDS011;35761;48.826;9.238;2023-12-20T05:22:11;0.68;;;0.47;;
49860;SDS011;35761;48.826;9.238;2023-12-20T05:24:37;0.30;;;0.28;;
49860;SDS011;35761;48.826;9.238;2023-12-20T05:27:02;1.60;;;0.47;;
49860;SDS011;35761;48.826;9.238;2023-12-20T05:29:28;0.50;;;0.40;;
49860;SDS011;35761;48.826;9.238;2023-12-20T05:31:54;1.08;;;0.50;;
49860;SDS011;35761;48.826;9.238;2023-12-20T05:34:19;1.17;;;0.65;;
49860;SDS011;35761;48.826;9.238;2023-12-20T05:36:45;0.75;;;0.45;;
49860;SDS011;35761;48.826;9.238;2023-12-20T05:39:10;0.50;;;0.40;;
49860;SDS011;35761;48.826;9.238;2023-12-20T05:41:36;1.85;;;0.52;;
49860;SDS011;35761;48.826;9.238;2023-12-20T05:44:02;0.57;;;0.40;;
49860;SDS011;35761;48.826;9.238;2023-12-20T05:46:27;3.45;;;0.70;;
49860;SDS011;35761;48.826;9.238;2023-12-20T05:48:53;0.57;;;0.45;;
49860;SDS011;35761;48.826;9.238;2023-12-20T05:51:18;0.40;;;0.40;;
49860;SDS011;35761;48.826;9.238;2023-12-20T05:53:44;0.80;;;0.45;;
49860;SDS011;35761;48.826;9.238;2023-12-20T05:56:10;0.98;;;0.60;;
49860;SDS011;35761;48.826;9.238;2023-12-20T05:58:35;3.13;;;0.57;;
49860;SDS011;35761;48.826;9.238;2023-12-20T06:01:04;0.77;;;0.47;;
49860;SDS011;35761;48.826;9.238;2023-12-20T06:03:30;1.05;;;0.40;;
49860;SDS011;35761;48.826;9.238;2023-12-20T06:05:55;2.70;;;1.33;;
49860;SDS011;35761;48.826;9.238;2023-12-20T06:08:21;2.47;;;0.85;;
49860;SDS011;35761;48.826;9.238;2023-12-20T06:10:46;0.85;;;0.70;;
49860;SDS011;35761;48.826;9.238;2023-12-20T06:13:11;2.03;;;1.00;;
49860;SDS011;35761;48.826;9.238;2023-12-20T06:15:38;3.00;;;0.70;;
49860;SDS011;35761;48.826;9.238;2023-12-20T06:18:05;2.05;;;0.90;;
49860;SDS011;35761;48.826;9.238;2023-12-20T06:20:31;1.10;;;0.63;;
49860;SDS011;35761;48.826;9.238;2023-12-20T06:22:56;10.77;;;5.53;;
49860;SDS011;35761;48.826;9.238;2023-12-20T06:25:21;7.85;;;2.42;;
49860;SDS011;35761;48.826;9.238;2023-12-20T06:27:47;1.38;;;0.80;;
49860;SDS011;35761;48.826;9.238;2023-12-20T06:30:12;1.33;;;0.80;;
49860;SDS011;35761;48.826;9.238;2023-12-20T06:32:38;1.27;;;0.90;;
49860;SDS011;35761;48.826;9.238;2023-12-20T06:35:04;1.90;;;1.10;;
49860;SDS011;35761;48.826;9.238;2023-12-20T06:37:30;1.55;;;0.93;;
49860;SDS011;35761;48.826;9.238;2023-12-20T06:39:56;1.52;;;1.00;;
49860;SDS011;35761;48.826;9.238;2023-12-20T06:42:22;3.78;;;1.00;;
49860;SDS011;35761;48.826;9.238;2023-12-20T06:44:48;2.47;;;0.93;;
49860;SDS011;35761;48.826;9.238;2023-12-20T06:47:13;1.63;;;0.80;;
49860;SDS011;35761;48.826;9.238;2023-12-20T06:49:39;2.90;;;1.20;;
49860;SDS011;35761;48.826;9.238;2023-12-20T06:52:05;1.73;;;0.95;;
49860;SDS011;35761;48.826;9.238;2023-12-20T06:54:31;3.08;;;1.27;;
49860;SDS011;35761;48.826;9.238;2023-12-20T06:56:56;1.48;;;0.95;;
49860;SDS011;35761;48.826;9.238;2023-12-20T06:59:22;11.15;;;1.13;;
49860;SDS011;35761;48.826;9.238;2023-12-20T07:01:48;1.73;;;0.80;;
49860;SDS011;35761;48.826;9.238;2023-12-20T07:04:14;1.75;;;0.90;;
49860;SDS011;35761;48.826;9.238;2023-12-20T07:06:39;3.17;;;1.13;;
49860;SDS011;35761;48.826;9.238;2023-12-20T07:09:05;3.55;;;1.15;;
49860;SDS011;35761;48.826;9.238;2023-12-20T07:11:30;2.65;;;1.42;;
49860;SDS011;35761;48.826;9.238;2023-12-20T07:13:55;3.88;;;1.58;;
49860;SDS011;35761;48.826;9.238;2023-12-20T07:16:21;4.05;;;1.60;;
49860;SDS011;35761;48.826;9.238;2023-12-20T07:18:47;2.78;;;1.70;;
49860;SDS011;35761;48.826;9.238;2023-12-20T07:21:14;2.72;;;1.80;;
49860;SDS011;35761;48.826;9.238;2023-12-20T07:23:39;7.72;;;2.70;;
49860;SDS011;35761;48.826;9.238;2023-12-20T07:26:05;3.45;;;2.38;;
49860;SDS011;35761;48.826;9.238;2023-12-20T07:28:31;4.13;;;2.85;;
49860;SDS011;35761;48.826;9.238;2023-12-20T07:30:56;3.30;;;2.33;;
49860;SDS011;35761;48.826;9.238;2023-12-20T07:33:22;4.13;;;2.72;;
49860;SDS011;35761;48.826;9.238;2023-12-20T07:35:47;3.78;;;2.47;;
49860;SDS011;35761;48.826;9.238;2023-12-20T07:38:13;4.38;;;2.65;;
49860;SDS011;35761;48.826;9.238;2023-12-20T07:40:38;5.68;;;2.10;;
49860;SDS011;35761;48.826;9.238;2023-12-20T07:43:04;3.10;;;2.40;;
49860;SDS011;35761;48.826;9.238;2023-12-20T07:45:29;3.05;;;2.30;;
49860;SDS011;35761;48.826;9.238;2023-12-20T07:47:55;3.28;;;2.00;;
49860;SDS011;35761;48.826;9.238;2023-12-20T07:50:20;4.07;;;2.30;;
49860;SDS011;35761;48.826;9.238;2023-12-20T07:52:46;3.83;;;2.13;;
49860;SDS011;35761;48.826;9.238;2023-12-20T07:55:11;3.28;;;2.05;;
49860;SDS011;35761;48.826;9.238;2023-12-20T07:57:37;3.05;;;1.80;;
49860;SDS011;35761;48.826;9.238;2023-12-20T08:00:02;8.63;;;2.78;;
49860;SDS011;35761;48.826;9.238;2023-12-20T08:02:29;4.10;;;1.98;;
49860;SDS011;35761;48.826;9.238;2023-12-20T08:04:55;3.63;;;2.20;;
49860;SDS011;35761;48.826;9.238;2023-12-20T08:07:20;3.13;;;2.10;;
49860;SDS011;35761;48.826;9.238;2023-12-20T08:09:46;3.90;;;2.20;;
49860;SDS011;35761;48.826;9.238;2023-12-20T08:12:11;4.20;;;2.50;;
49860;SDS011;35761;48.826;9.238;2023-12-20T08:14:37;4.47;;;2.88;;
49860;SDS011;35761;48.826;9.238;2023-12-20T08:17:02;4.50;;;2.03;;
49860;SDS011;35761;48.826;9.238;2023-12-20T08:19:28;5.35;;;2.05;;
49860;SDS011;35761;48.826;9.238;2023-12-20T08:21:53;4.65;;;2.28;;
49860;SDS011;35761;48.826;9.238;2023-12-20T08:24:19;4.95;;;2.50;;
49860;SDS011;35761;48.826;9.238;2023-12-20T08:26:44;6.32;;;3.85;;
49860;SDS011;35761;48.826;9.238;2023-12-20T08:29:12;3.45;;;2.20;;
49860;SDS011;35761;48.826;9.238;2023-12-20T08:31:38;5.65;;;2.97;;
49860;SDS011;35761;48.826;9.238;2023-12-20T08:34:04;5.20;;;2.60;;
49860;SDS011;35761;48.826;9.238;2023-12-20T08:36:29;7.82;;;2.50;;
49860;SDS011;35761;48.826;9.238;2023-12-20T08:38:55;3.65;;;2.35;;
49860;SDS011;35761;48.826;9.238;2023-12-20T08:41:20;5.68;;;2.38;;
49860;SDS011;35761;48.826;9.238;2023-12-20T08:43:46;4.25;;;2.78;;
49860;SDS011;35761;48.826;9.238;2023-12-20T08:46:11;7.78;;;2.75;;
49860;SDS011;35761;48.826;9.238;2023-12-20T08:48:37;4.30;;;2.40;;
49860;SDS011;35761;48.826;9.238;2023-12-20T08:51:03;5.28;;;2.47;;
49860;SDS011;35761;48.826;9.238;2023-12-20T08:53:29;7.43;;;2.28;;
49860;SDS011;35761;48.826;9.238;2023-12-20T08:55:55;4.50;;;2.17;;
49860;SDS011;35761;48.826;9.238;2023-12-20T08:58:20;3.70;;;2.20;;
49860;SDS011;35761;48.826;9.238;2023-12-20T09:00:45;6.95;;;2.78;;
49860;SDS011;35761;48.826;9.238;2023-12-20T09:03:11;5.85;;;2.40;;
49860;SDS011;35761;48.826;9.238;2023-12-20T09:05:36;5.88;;;2.50;;
49860;SDS011;35761;48.826;9.238;2023-12-20T09:08:02;5.45;;;2.67;;
49860;SDS011;35761;48.826;9.238;2023-12-20T09:10:27;7.53;;;2.38;;
49860;SDS011;35761;48.826;9.238;2023-12-20T09:12:53;4.55;;;2.10;;
49860;SDS011;35761;48.826;9.238;2023-12-20T09:15:22;6.72;;;2.65;;
49860;SDS011;35761;48.826;9.238;2023-12-20T09:17:48;6.63;;;2.45;;
49860;SDS011;35761;48.826;9.238;2023-12-20T09:20:14;4.13;;;2.13;;
49860;SDS011;35761;48.826;9.238;2023-12-20T09:22:39;4.63;;;2.35;;
49860;SDS011;35761;48.826;9.238;2023-12-20T09:25:07;3.80;;;1.83;;
49860;SDS011;35761;48.826;9.238;2023-12-20T09:27:33;4.30;;;2.00;;
49860;SDS011;35761;48.826;9.238;2023-12-20T09:29:58;5.95;;;2.35;;
49860;SDS011;35761;48.826;9.238;2023-12-20T09:32:24;5.30;;;2.30;;
49860;SDS011;35761;48.826;9.238;2023-12-20T09:34:49;6.22;;;2.10;;
49860;SDS011;35761;48.826;9.238;2023-12-20T09:37:15;4.18;;;1.85;;
49860;SDS011;35761;48.826;9.238;2023-12-20T09:39:40;7.00;;;1.73;;
49860;SDS011;35761;48.826;9.238;2023-12-20T09:42:06;8.23;;;1.90;;
49860;SDS011;35761;48.826;9.238;2023-12-20T09:44:32;7.22;;;1.65;;
49860;SDS011;35761;48.826;9.238;2023-12-20T09:47:02;6.40;;;2.10;;
49860;SDS011;35761;48.826;9.238;2023-12-20T09:49:29;6.43;;;2.28;;
49860;SDS011;35761;48.826;9.238;2023-12-20T09:51:55;6.95;;;2.17;;
49860;SDS011;35761;48.826;9.238;2023-12-20T09:54:22;9.23;;;1.92;;
49860;SDS011;35761;48.826;9.238;2023-12-20T09:56:48;8.02;;;1.83;;
49860;SDS011;35761;48.826;9.238;2023-12-20T09:59:14;5.57;;;1.77;;
49860;SDS011;35761;48.826;9.238;2023-12-20T10:01:40;5.25;;;1.20;;
49860;SDS011;35761;48.826;9.238;2023-12-20T10:04:06;6.57;;;1.90;;
49860;SDS011;35761;48.826;9.238;2023-12-20T10:06:39;7.50;;;1.55;;
49860;SDS011;35761;48.826;9.238;2023-12-20T10:09:05;6.32;;;1.50;;
49860;SDS011;35761;48.826;9.238;2023-12-20T10:11:31;10.32;;;2.08;;
49860;SDS011;35761;48.826;9.238;2023-12-20T10:13:59;10.10;;;1.98;;
49860;SDS011;35761;48.826;9.238;2023-12-20T10:16:28;6.38;;;1.58;;
49860;SDS011;35761;48.826;9.238;2023-12-20T10:18:54;10.98;;;1.70;;
49860;SDS011;35761;48.826;9.238;2023-12-20T10:21:19;7.30;;;1.83;;
49860;SDS011;35761;48.826;9.238;2023-12-20T10:23:45;7.72;;;1.90;;
49860;SDS011;35761;48.826;9.238;2023-12-20T10:26:18;11.90;;;2.35;;
49860;SDS011;35761;48.826;9.238;2023-12-20T10:28:45;6.57;;;2.37;;
49860;SDS011;35761;48.826;9.238;2023-12-20T10:31:10;8.70;;;1.63;;
49860;SDS011;35761;48.826;9.238;2023-12-20T10:33:51;8.75;;;1.83;;
49860;SDS011;35761;48.826;9.238;2023-12-20T10:36:16;9.30;;;3.05;;
49860;SDS011;35761;48.826;9.238;2023-12-20T10:38:42;9.05;;;2.17;;
49860;SDS011;35761;48.826;9.238;2023-12-20T10:41:08;5.38;;;1.60;;
49860;SDS011;35761;48.826;9.238;2023-12-20T10:43:34;5.93;;;1.60;;
49860;SDS011;35761;48.826;9.238;2023-12-20T10:45:59;4.50;;;1.48;;
49860;SDS011;35761;48.826;9.238;2023-12-20T10:48:26;10.80;;;2.88;;
49860;SDS011;35761;48.826;9.238;2023-12-20T10:50:55;5.68;;;1.63;;
49860;SDS011;35761;48.826;9.238;2023-12-20T10:53:21;7.78;;;1.70;;
49860;SDS011;35761;48.826;9.238;2023-12-20T10:55:47;10.90;;;1.85;;
49860;SDS011;35761;48.826;9.238;2023-12-20T10:58:15;5.60;;;1.70;;
49860;SDS011;35761;48.826;9.238;2023-12-20T11:00:41;5.60;;;1.60;;
49860;SDS011;35761;48.826;9.238;2023-12-20T11:03:09;6.88;;;1.85;;
49860;SDS011;35761;48.826;9.238;2023-12-20T11:10:54;10.38;;;1.80;;
49860;SDS011;35761;48.826;9.238;2023-12-20T11:13:38;11.70;;;3.90;;
49860;SDS011;35761;48.826;9.238;2023-12-20T11:16:07;19.83;;;6.93;;
49860;SDS011;35761;48.826;9.238;2023-12-20T11:18:33;11.63;;;4.35;;
49860;SDS011;35761;48.826;9.238;2023-12-20T11:21:02;12.93;;;2.20;;
49860;SDS011;35761;48.826;9.238;2023-12-20T11:23:29;11.55;;;3.17;;
49860;SDS011;35761;48.826;9.238;2023-12-20T11:25:56;14.80;;;3.72;;
49860;SDS011;35761;48.826;9.238;2023-12-20T11:28:26;8.25;;;1.83;;
49860;SDS011;35761;48.826;9.238;2023-12-20T11:30:56;7.57;;;1.70;;
49860;SDS011;35761;48.826;9.238;2023-12-20T11:33:25;7.38;;;1.52;;
49860;SDS011;35761;48.826;9.238;2023-12-20T11:35:51;8.77;;;1.70;;
49860;SDS011;35761;48.826;9.238;2023-12-20T11:38:19;12.20;;;1.70;;
49860;SDS011;35761;48.826;9.238;2023-12-20T11:40:45;13.65;;;1.95;;
49860;SDS011;35761;48.826;9.238;2023-12-20T11:43:29;10.13;;;1.58;;
49860;SDS011;35761;48.826;9.238;2023-12-20T11:45:55;6.47;;;1.50;;
49860;SDS011;35761;48.826;9.238;2023-12-20T11:48:20;10.30;;;1.85;;
49860;SDS011;35761;48.826;9.238;2023-12-20T11:50:46;7.72;;;1.73;;
49860;SDS011;35761;48.826;9.238;2023-12-20T11:53:12;7.82;;;1.60;;
49860;SDS011;35761;48.826;9.238;2023-12-20T11:55:37;9.70;;;2.63;;
49860;SDS011;35761;48.826;9.238;2023-12-20T11:58:02;10.95;;;1.75;;
49860;SDS011;35761;48.826;9.238;2023-12-20T12:00:28;4.18;;;1.50;;
49860;SDS011;35761;48.826;9.238;2023-12-20T12:02:57;7.05;;;1.55;;
49860;SDS011;35761;48.826;9.238;2023-12-20T12:05:23;10.18;;;1.48;;
49860;SDS011;35761;48.826;9.238;2023-12-20T12:07:49;11.75;;;2.08;;
49860;SDS011;35761;48.826;9.238;2023-12-20T12:10:14;6.55;;;1.77;;
49860;SDS011;35761;48.826;9.238;2023-12-20T12:12:40;10.07;;;1.67;;
49860;SDS011;35761;48.826;9.238;2023-12-20T12:15:05;8.23;;;1.88;;
49860;SDS011;35761;48.826;9.238;2023-12-20T12:17:32;7.50;;;1.52;;
49860;SDS011;35761;48.826;9.238;2023-12-20T12:20:04;10.98;;;1.92;;
49860;SDS011;35761;48.826;9.238;2023-12-20T12:22:30;5.75;;;1.75;;
49860;SDS011;35761;48.826;9.238;2023-12-20T12:24:58;11.30;;;4.32;;
49860;SDS011;35761;48.826;9.238;2023-12-20T12:27:27;7.90;;;2.38;;
49860;SDS011;35761;48.826;9.238;2023-12-20T12:30:02;5.97;;;1.73;;
49860;SDS011;35761;48.826;9.238;2023-12-20T12:32:33;6.35;;;1.70;;
49860;SDS011;35761;48.826;9.238;2023-12-20T12:34:58;8.20;;;2.20;;
49860;SDS011;35761;48.826;9.238;2023-12-20T12:37:24;7.15;;;1.90;;
49860;SDS011;35761;48.826;9.238;2023-12-20T12:39:49;9.77;;;1.88;;
49860;SDS011;35761;48.826;9.238;2023-12-20T12:42:15;9.85;;;1.83;;
49860;SDS011;35761;48.826;9.238;2023-12-20T12:44:40;8.82;;;1.98;;
49860;SDS011;35761;48.826;9.238;2023-12-20T12:47:06;9.77;;;2.10;;
49860;SDS011;35761;48.826;9.238;2023-12-20T12:49:33;6.45;;;1.90;;
49860;SDS011;35761;48.826;9.238;2023-12-20T12:51:59;5.25;;;1.63;;
49860;SDS011;35761;48.826;9.238;2023-12-20T12:54:25;6.82;;;1.85;;
49860;SDS011;35761;48.826;9.238;2023-12-20T12:56:50;7.47;;;1.95;;
49860;SDS011;35761;48.826;9.238;2023-12-20T12:59:18;7.28;;;1.73;;
49860;SDS011;35761;48.826;9.238;2023-12-20T13:01:43;6.53;;;1.70;;
49860;SDS011;35761;48.826;9.238;2023-12-20T13:04:09;11.52;;;1.98;;
49860;SDS011;35761;48.826;9.238;2023-12-20T13:06:37;7.68;;;1.80;;
49860;SDS011;35761;48.826;9.238;2023-12-20T13:09:03;10.57;;;2.22;;
49860;SDS011;35761;48.826;9.238;2023-12-20T13:11:30;8.10;;;1.63;;
49860;SDS011;35761;48.826;9.238;2023-12-20T13:13:56;8.15;;;2.20;;
49860;SDS011;35761;48.826;9.238;2023-12-20T13:16:23;7.20;;;2.03;;
49860;SDS011;35761;48.826;9.238;2023-12-20T13:18:49;7.82;;;1.67;;
49860;SDS011;35761;48.826;9.238;2023-12-20T13:21:15;8.15;;;1.58;;
49860;SDS011;35761;48.826;9.238;2023-12-20T13:23:41;13.43;;;1.88;;
49860;SDS011;35761;48.826;9.238;2023-12-20T13:26:07;10.38;;;1.83;;
49860;SDS011;35761;48.826;9.238;2023-12-20T13:28:32;6.88;;;1.65;;
49860;SDS011;35761;48.826;9.238;2023-12-20T13:30:58;5.13;;;1.48;;
49860;SDS011;35761;48.826;9.238;2023-12-20T13:33:23;4.80;;;1.60;;
49860;SDS011;35761;48.826;9.238;2023-12-20T13:35:49;15.68;;;2.10;;
49860;SDS011;35761;48.826;9.238;2023-12-20T13:38:14;7.68;;;1.58;;
49860;SDS011;35761;48.826;9.238;2023-12-20T13:40:40;10.32;;;1.77;;
49860;SDS011;35761;48.826;9.238;2023-12-20T13:43:05;7.60;;;1.40;;
49860;SDS011;35761;48.826;9.238;2023-12-20T13:45:31;7.82;;;2.92;;
49860;SDS011;35761;48.826;9.238;2023-12-20T13:47:56;5.50;;;1.52;;
49860;SDS011;35761;48.826;9.238;2023-12-20T13:50:22;9.18;;;1.88;;
49860;SDS011;35761;48.826;9.238;2023-12-20T13:52:47;3.85;;;1.65;;
49860;SDS011;35761;48.826;9.238;2023-12-20T13:55:13;8.35;;;1.80;;
49860;SDS011;35761;48.826;9.238;2023-12-20T13:57:38;3.83;;;1.50;;
49860;SDS011;35761;48.826;9.238;2023-12-20T14:00:05;8.23;;;1.85;;
49860;SDS011;35761;48.826;9.238;2023-12-20T14:02:32;9.27;;;2.78;;
49860;SDS011;35761;48.826;9.238;2023-12-20T14:04:57;3.78;;;1.50;;
49860;SDS011;35761;48.826;9.238;2023-12-20T14:07:23;4.30;;;1.50;;
49860;SDS011;35761;48.826;9.238;2023-12-20T14:09:49;9.68;;;2.00;;
49860;SDS011;35761;48.826;9.238;2023-12-20T14:12:14;7.10;;;1.60;;
49860;SDS011;35761;48.826;9.238;2023-12-20T14:14:40;7.43;;;1.60;;
49860;SDS011;35761;48.826;9.238;2023-12-20T14:17:06;7.32;;;1.95;;
49860;SDS011;35761;48.826;9.238;2023-12-20T14:19:34;6.28;;;1.38;;
49860;SDS011;35761;48.826;9.238;2023-12-20T14:22:00;8.25;;;1.75;;
49860;SDS011;35761;48.826;9.238;2023-12-20T14:24:29;9.57;;;2.05;;
49860;SDS011;35761;48.826;9.238;2023-12-20T14:26:55;6.35;;;1.90;;
49860;SDS011;35761;48.826;9.238;2023-12-20T14:29:20;15.13;;;1.85;;
49860;SDS011;35761;48.826;9.238;2023-12-20T14:31:46;10.43;;;2.20;;
49860;SDS011;35761;48.826;9.238;2023-12-20T14:34:11;6.00;;;2.40;;
49860;SDS011;35761;48.826;9.238;2023-12-20T14:36:37;10.02;;;1.80;;
49860;SDS011;35761;48.826;9.238;2023-12-20T14:39:02;7.40;;;1.80;;
49860;SDS011;35761;48.826;9.238;2023-12-20T14:41:30;7.07;;;1.70;;
49860;SDS011;35761;48.826;9.238;2023-12-20T14:43:56;7.80;;;1.50;;